Aviation Digital Data Service (ADDS)

Output produced by METARs form (0344 UTC 23 November 2017)
found at http://www.aviationweather.gov/adds/metars/
 
VDSR 230330Z 02005KT 240V060 9999 FEW017 29/22 Q1010
TAF VDSR 222300Z 2300/2318 09008KT 9999 SCT017 SCT040 
     TEMPO 2306/2311 SCT015 FEW017CB BKN040